createdAt,value
2018-09-14T00:00:49.428Z,16.00
2018-09-14T00:03:18.021Z,16.20
2018-09-14T00:05:46.570Z,16.00
2018-09-14T00:08:15.196Z,15.90
2018-09-14T00:10:43.783Z,16.00
2018-09-14T00:13:12.432Z,16.00
2018-09-14T00:15:40.999Z,15.80
2018-09-14T00:18:09.520Z,15.70
2018-09-14T00:20:38.134Z,15.80
2018-09-14T00:23:06.821Z,15.70
2018-09-14T00:25:35.424Z,15.50
2018-09-14T00:28:04.029Z,15.80
2018-09-14T00:30:32.604Z,15.70
2018-09-14T00:33:01.217Z,15.60
2018-09-14T00:35:29.801Z,15.40
2018-09-14T00:37:59.010Z,15.50
2018-09-14T00:40:27.599Z,15.60
2018-09-14T00:42:56.369Z,15.30
2018-09-14T00:45:24.980Z,15.50
2018-09-14T00:47:53.564Z,15.30
2018-09-14T00:50:22.159Z,15.30
2018-09-14T00:52:50.743Z,15.10
2018-09-14T00:55:19.281Z,15.30
2018-09-14T00:57:47.851Z,15.10
2018-09-14T01:00:16.565Z,15.60
2018-09-14T01:02:45.251Z,15.30
2018-09-14T01:05:13.824Z,15.30
2018-09-14T01:07:42.536Z,15.20
2018-09-14T01:10:11.144Z,15.50
2018-09-14T01:12:39.863Z,15.40
2018-09-14T01:15:08.536Z,15.20
2018-09-14T01:17:37.123Z,15.30
2018-09-14T01:20:05.987Z,15.30
2018-09-14T01:22:35.165Z,15.30
2018-09-14T01:25:04.427Z,15.20
2018-09-14T01:27:33.033Z,15.10
2018-09-14T01:30:01.651Z,15.40
2018-09-14T01:32:30.185Z,15.20
2018-09-14T01:34:58.736Z,15.30
2018-09-14T01:37:27.532Z,15.20
2018-09-14T01:39:56.223Z,15.40
2018-09-14T01:42:25.036Z,15.10
2018-09-14T01:44:53.753Z,15.30
2018-09-14T01:47:23.288Z,15.30
2018-09-14T01:49:51.860Z,15.20
2018-09-14T01:52:20.488Z,15.10
2018-09-14T01:54:49.044Z,15.00
2018-09-14T01:57:17.768Z,15.10
2018-09-14T01:59:46.355Z,15.10
2018-09-14T02:02:14.983Z,15.20
2018-09-14T02:04:43.531Z,15.30
2018-09-14T02:07:12.127Z,14.90
2018-09-14T02:09:40.726Z,14.90
2018-09-14T02:12:09.324Z,15.30
2018-09-14T02:14:37.854Z,15.20
2018-09-14T02:17:06.385Z,14.90
2018-09-14T02:19:34.955Z,15.00
2018-09-14T02:22:03.521Z,15.00
2018-09-14T02:24:32.146Z,15.00
2018-09-14T02:27:00.727Z,14.90
2018-09-14T02:29:29.308Z,15.00
2018-09-14T02:31:57.838Z,15.00
2018-09-14T02:34:26.404Z,15.00
2018-09-14T02:36:55.078Z,14.90
2018-09-14T02:39:23.760Z,14.70
2018-09-14T02:41:52.347Z,15.10
2018-09-14T02:44:21.625Z,15.00
2018-09-14T02:46:50.192Z,14.70
2018-09-14T02:49:18.847Z,14.60
2018-09-14T02:54:28.996Z,14.60
2018-09-14T02:56:58.700Z,14.60
2018-09-14T02:59:27.977Z,14.90
2018-09-14T03:01:56.521Z,14.90
2018-09-14T03:04:25.112Z,14.70
2018-09-14T03:06:53.720Z,14.50
2018-09-14T03:09:28.546Z,14.90
2018-09-14T03:11:57.068Z,14.60
2018-09-14T03:14:25.688Z,14.60
2018-09-14T03:16:54.757Z,14.40
2018-09-14T03:19:23.423Z,14.60
2018-09-14T03:21:52.089Z,14.60
2018-09-14T03:24:21.039Z,14.30
2018-09-14T03:26:49.721Z,14.50
2018-09-14T03:29:18.260Z,14.70
2018-09-14T03:31:46.948Z,14.60
2018-09-14T03:34:15.613Z,14.40
2018-09-14T03:36:44.302Z,14.60
2018-09-14T03:39:12.999Z,14.30
2018-09-14T03:41:41.500Z,14.50
2018-09-14T03:44:10.096Z,14.50
2018-09-14T03:46:38.628Z,14.80
2018-09-14T03:49:07.176Z,14.50
2018-09-14T03:51:35.728Z,14.50
2018-09-14T03:54:04.361Z,14.50
2018-09-14T03:56:32.911Z,14.50
2018-09-14T03:59:01.521Z,14.40
2018-09-14T04:01:30.038Z,14.20
2018-09-14T04:03:58.751Z,14.60
2018-09-14T04:06:27.314Z,14.50
2018-09-14T04:08:55.951Z,14.50
2018-09-14T04:11:24.618Z,14.50
2018-09-14T04:13:53.189Z,14.70
2018-09-14T04:16:21.823Z,14.30
2018-09-14T04:18:54.803Z,14.30
2018-09-14T04:21:23.472Z,14.50
2018-09-14T04:23:52.049Z,14.20
2018-09-14T04:26:20.707Z,14.40
2018-09-14T04:28:49.356Z,14.40
2018-09-14T04:31:18.062Z,14.30
2018-09-14T04:33:46.750Z,14.40
2018-09-14T04:36:15.611Z,14.10
2018-09-14T04:38:44.262Z,14.60
2018-09-14T04:41:12.764Z,14.40
2018-09-14T04:43:41.491Z,14.30
2018-09-14T04:46:10.278Z,14.30
2018-09-14T04:48:39.058Z,14.20
2018-09-14T04:51:07.659Z,14.00
2018-09-14T04:53:36.546Z,14.10
2018-09-14T04:56:05.563Z,14.20
2018-09-14T04:58:34.255Z,14.60
2018-09-14T05:01:03.008Z,14.40
2018-09-14T05:03:31.861Z,14.30
2018-09-14T05:06:00.450Z,14.20
2018-09-14T05:08:29.012Z,14.10
2018-09-14T05:10:57.798Z,14.30
2018-09-14T05:13:26.404Z,14.30
2018-09-14T05:15:55.093Z,14.30
2018-09-14T05:18:24.082Z,14.20
2018-09-14T05:20:52.756Z,14.30
2018-09-14T05:23:21.360Z,14.20
2018-09-14T05:25:50.067Z,14.40
2018-09-14T05:28:18.718Z,14.20
2018-09-14T05:30:47.448Z,14.40
2018-09-14T05:33:16.745Z,14.20
2018-09-14T05:35:45.410Z,14.30
2018-09-14T05:38:14.110Z,14.20
2018-09-14T05:40:42.716Z,14.20
2018-09-14T05:43:11.292Z,14.30
2018-09-14T05:45:39.998Z,14.20
2018-09-14T05:48:08.653Z,14.10
2018-09-14T05:50:37.264Z,14.20
2018-09-14T05:53:05.890Z,14.20
2018-09-14T05:55:34.469Z,14.30
2018-09-14T05:58:03.293Z,14.10
2018-09-14T06:00:31.920Z,14.10
2018-09-14T06:03:01.013Z,14.20
2018-09-14T06:05:29.600Z,14.20
2018-09-14T06:07:58.147Z,14.30
2018-09-14T06:10:27.617Z,14.30
2018-09-14T06:12:56.389Z,14.40
2018-09-14T06:15:25.014Z,14.10
2018-09-14T06:17:53.748Z,14.40
2018-09-14T06:20:22.356Z,14.20
2018-09-14T06:22:50.942Z,14.20
2018-09-14T06:25:19.512Z,14.20
2018-09-14T06:27:48.816Z,14.30
2018-09-14T06:30:18.091Z,14.30
2018-09-14T06:32:46.852Z,14.10
2018-09-14T06:35:15.693Z,14.30
2018-09-14T06:37:44.356Z,14.30
2018-09-14T06:40:13.064Z,14.30
2018-09-14T06:42:41.760Z,14.30
2018-09-14T06:45:10.348Z,14.50
2018-09-14T06:47:38.895Z,14.50
2018-09-14T06:50:07.529Z,14.60
2018-09-14T06:52:36.093Z,14.80
2018-09-14T06:55:04.743Z,14.70
2018-09-14T06:57:33.294Z,14.80
2018-09-14T07:00:01.993Z,14.60
2018-09-14T07:02:30.688Z,14.80
2018-09-14T07:04:59.442Z,14.40
2018-09-14T07:07:28.675Z,14.50
2018-09-14T07:09:57.355Z,14.60
2018-09-14T07:12:25.948Z,14.80
2018-09-14T07:14:54.581Z,14.80
2018-09-14T07:17:23.456Z,14.70
2018-09-14T07:19:52.043Z,14.70
2018-09-14T07:22:21.400Z,14.70
2018-09-14T07:24:50.073Z,14.70
2018-09-14T07:27:18.623Z,15.10
2018-09-14T07:29:47.216Z,15.10
2018-09-14T07:32:15.982Z,15.30
2018-09-14T07:34:44.642Z,15.20
2018-09-14T07:37:13.313Z,15.20
2018-09-14T07:39:41.915Z,15.20
2018-09-14T07:42:10.692Z,15.30
2018-09-14T07:44:39.325Z,15.50
2018-09-14T07:47:07.949Z,15.70
2018-09-14T07:49:36.633Z,15.40
2018-09-14T07:52:05.445Z,15.60
2018-09-14T07:54:34.037Z,15.70
2018-09-14T07:57:02.832Z,15.80
2018-09-14T07:59:31.396Z,15.60
2018-09-14T08:02:00.084Z,15.80
2018-09-14T08:04:28.670Z,15.80
2018-09-14T08:06:57.401Z,15.90
2018-09-14T08:09:26.642Z,16.00
2018-09-14T08:11:55.299Z,15.90
2018-09-14T08:14:23.948Z,16.40
2018-09-14T08:16:53.757Z,16.30
2018-09-14T08:19:22.486Z,16.40
2018-09-14T08:21:51.170Z,16.60
2018-09-14T08:24:19.628Z,16.60
2018-09-14T08:26:48.256Z,16.80
2018-09-14T08:29:16.803Z,16.60
2018-09-14T08:31:45.446Z,16.90
2018-09-14T08:34:14.058Z,16.90
2018-09-14T08:36:42.681Z,17.10
2018-09-14T08:39:12.685Z,16.90
2018-09-14T08:41:41.340Z,17.00
2018-09-14T08:44:10.077Z,17.00
2018-09-14T08:46:38.808Z,17.30
2018-09-14T08:49:07.360Z,17.40
2018-09-14T08:51:35.989Z,17.40
2018-09-14T08:54:04.567Z,17.50
2018-09-14T08:56:33.146Z,17.30
2018-09-14T08:59:01.904Z,17.50
2018-09-14T09:01:30.474Z,17.70
2018-09-14T09:03:59.327Z,17.60
2018-09-14T09:06:28.787Z,17.40
2018-09-14T09:08:57.584Z,17.70
2018-09-14T09:11:26.849Z,17.60
2018-09-14T09:13:55.474Z,17.90
2018-09-14T09:16:24.383Z,17.80
2018-09-14T09:18:53.574Z,18.00
2018-09-14T09:21:22.766Z,18.10
2018-09-14T09:23:54.280Z,18.10
2018-09-14T09:26:24.297Z,18.20
2018-09-14T09:28:53.242Z,18.20
2018-09-14T09:31:22.576Z,18.00
2018-09-14T09:33:51.700Z,18.20
2018-09-14T09:36:20.827Z,18.20
2018-09-14T09:38:50.677Z,18.20
2018-09-14T09:41:19.567Z,18.10
2018-09-14T09:43:48.232Z,18.40
2018-09-14T09:46:16.941Z,18.40
2018-09-14T09:48:46.085Z,18.60
2018-09-14T09:51:14.936Z,18.50
2018-09-14T09:53:44.401Z,18.60
2018-09-14T09:56:13.774Z,18.70
2018-09-14T09:58:42.887Z,18.80
2018-09-14T10:01:17.122Z,18.90
2018-09-14T10:03:52.590Z,18.90
2018-09-14T10:06:26.177Z,19.10
2018-09-14T10:08:55.951Z,19.20
2018-09-14T10:11:25.857Z,19.20
2018-09-14T10:13:55.747Z,19.30
2018-09-14T10:16:24.661Z,19.30
2018-09-14T10:18:53.366Z,19.60
2018-09-14T10:21:22.185Z,19.60
2018-09-14T10:23:52.043Z,19.70
2018-09-14T10:26:20.758Z,19.20
2018-09-14T10:28:49.590Z,19.80
2018-09-14T10:31:18.276Z,19.60
2018-09-14T10:33:47.069Z,20.10
2018-09-14T10:36:15.576Z,19.90
2018-09-14T10:38:44.215Z,19.80
2018-09-14T10:41:12.793Z,19.70
2018-09-14T10:43:41.400Z,19.70
2018-09-14T10:46:10.301Z,19.70
2018-09-14T10:48:39.084Z,19.70
2018-09-14T10:51:08.235Z,19.60
2018-09-14T10:53:36.819Z,19.40
2018-09-14T10:56:05.496Z,19.50
2018-09-14T10:58:39.459Z,19.50
2018-09-14T11:01:08.209Z,19.60
2018-09-14T11:03:36.866Z,19.40
2018-09-14T11:06:05.606Z,19.20
2018-09-14T11:08:34.505Z,19.60
2018-09-14T11:11:03.277Z,19.40
2018-09-14T11:13:32.304Z,19.50
2018-09-14T11:16:01.612Z,19.70
2018-09-14T11:18:30.869Z,19.50
2018-09-14T11:20:59.740Z,19.80
2018-09-14T11:23:29.597Z,19.80
2018-09-14T11:25:58.287Z,19.90
2018-09-14T11:28:26.835Z,20.00
2018-09-14T11:30:55.615Z,19.50
2018-09-14T11:33:24.198Z,20.00
2018-09-14T11:35:53.667Z,20.10
2018-09-14T11:38:22.581Z,20.10
2018-09-14T11:40:51.177Z,20.30
2018-09-14T11:43:19.740Z,20.40
2018-09-14T11:45:48.848Z,20.60
2018-09-14T11:48:17.431Z,20.40
2018-09-14T11:50:46.095Z,20.60
2018-09-14T11:53:14.714Z,20.60
2018-09-14T11:55:43.290Z,20.40
2018-09-14T11:58:11.975Z,20.70
2018-09-14T12:00:41.104Z,21.10
2018-09-14T12:03:09.800Z,20.90
2018-09-14T12:05:38.891Z,20.90
2018-09-14T12:08:07.591Z,20.70
2018-09-14T12:10:36.160Z,20.80
2018-09-14T12:13:04.861Z,20.90
2018-09-14T12:15:33.632Z,21.00
2018-09-14T12:18:02.252Z,20.90
2018-09-14T12:20:31.308Z,21.10
2018-09-14T12:22:59.879Z,21.10
2018-09-14T12:25:28.527Z,21.10
2018-09-14T12:27:57.556Z,21.10
2018-09-14T12:30:26.264Z,21.10
2018-09-14T12:32:55.099Z,21.10
2018-09-14T12:35:23.909Z,21.20
2018-09-14T12:37:52.797Z,21.20
2018-09-14T12:40:21.436Z,21.30
2018-09-14T12:42:50.167Z,21.10
2018-09-14T12:45:18.766Z,21.20
2018-09-14T12:47:47.704Z,21.20
2018-09-14T12:50:16.288Z,21.30
2018-09-14T12:52:44.855Z,21.40
2018-09-14T12:55:13.453Z,21.50
2018-09-14T12:57:42.628Z,21.50
2018-09-14T13:00:11.470Z,21.50
2018-09-14T13:02:40.079Z,21.50
2018-09-14T13:05:08.872Z,21.50
2018-09-14T13:07:37.528Z,21.50
2018-09-14T13:10:06.803Z,21.30
2018-09-14T13:12:35.331Z,21.60
2018-09-14T13:15:04.256Z,21.70
2018-09-14T13:17:32.968Z,21.70
2018-09-14T13:20:01.764Z,21.60
2018-09-14T13:22:30.377Z,21.50
2018-09-14T13:24:59.479Z,21.50
2018-09-14T13:27:28.171Z,21.50
2018-09-14T13:29:56.822Z,21.50
2018-09-14T13:32:25.580Z,21.50
2018-09-14T13:34:54.321Z,21.40
2018-09-14T13:37:23.245Z,21.30
2018-09-14T13:39:52.132Z,21.50
2018-09-14T13:42:20.778Z,21.50
2018-09-14T13:44:50.375Z,21.70
2018-09-14T13:47:18.908Z,21.80
2018-09-14T13:49:47.526Z,21.80
2018-09-14T13:52:16.115Z,21.20
2018-09-14T13:54:44.895Z,21.80
2018-09-14T13:57:14.153Z,21.40
2018-09-14T13:59:42.778Z,21.50
2018-09-14T14:02:11.364Z,21.60
2018-09-14T14:04:40.623Z,21.70
2018-09-14T14:07:09.319Z,21.70
2018-09-14T14:09:37.953Z,21.80
2018-09-14T14:12:06.562Z,21.70
2018-09-14T14:14:35.241Z,21.60
2018-09-14T14:17:04.031Z,21.60
2018-09-14T14:19:32.666Z,21.60
2018-09-14T14:22:02.184Z,21.40
2018-09-14T14:24:30.810Z,21.80
2018-09-14T14:26:59.400Z,21.80
2018-09-14T14:29:28.733Z,21.60
2018-09-14T14:31:57.453Z,21.60
2018-09-14T14:34:26.265Z,21.60
2018-09-14T14:36:55.928Z,21.70
2018-09-14T14:39:24.620Z,21.70
2018-09-14T14:41:53.293Z,21.70
2018-09-14T14:44:21.894Z,21.80
2018-09-14T14:46:50.462Z,21.80
2018-09-14T14:49:19.198Z,21.80
2018-09-14T14:51:47.683Z,21.80
2018-09-14T14:54:16.265Z,21.80
2018-09-14T14:56:44.821Z,21.80
2018-09-14T14:59:13.513Z,21.90
2018-09-14T15:01:42.304Z,21.90
2018-09-14T15:04:10.933Z,21.90
2018-09-14T15:06:40.640Z,21.90
2018-09-14T15:09:10.356Z,21.80
2018-09-14T15:11:39.359Z,21.80
2018-09-14T15:14:07.942Z,21.70
2018-09-14T15:16:36.576Z,21.30
2018-09-14T15:19:05.780Z,21.80
2018-09-14T15:21:35.064Z,21.80
2018-09-14T15:24:05.196Z,21.80
2018-09-14T15:26:33.834Z,21.80
2018-09-14T15:29:02.491Z,21.80
2018-09-14T15:31:31.262Z,21.90
2018-09-14T15:33:59.928Z,21.90
2018-09-14T15:36:28.700Z,21.80
2018-09-14T15:38:57.560Z,21.80
2018-09-14T15:41:26.170Z,21.70
2018-09-14T15:43:54.887Z,21.60
2018-09-14T15:46:23.628Z,21.60
2018-09-14T15:48:52.247Z,21.70
2018-09-14T15:51:21.096Z,21.70
2018-09-14T15:53:49.748Z,21.70
2018-09-14T15:56:18.428Z,21.80
2018-09-14T15:58:47.236Z,21.80
2018-09-14T16:01:15.782Z,21.90
2018-09-14T16:03:44.348Z,21.80
2018-09-14T16:06:13.642Z,21.90
2018-09-14T16:08:42.511Z,21.80
2018-09-14T16:11:11.275Z,21.70
2018-09-14T16:13:40.015Z,21.70
2018-09-14T16:16:08.548Z,21.70
2018-09-14T16:18:37.132Z,21.60
2018-09-14T16:21:05.791Z,21.60
2018-09-14T16:23:34.543Z,21.60
2018-09-14T16:26:03.054Z,21.60
2018-09-14T16:28:31.649Z,21.70
2018-09-14T16:31:00.403Z,21.80
2018-09-14T16:33:29.016Z,21.80
2018-09-14T16:35:57.680Z,21.90
2018-09-14T16:38:26.467Z,21.80
2018-09-14T16:40:55.072Z,21.80
2018-09-14T16:43:24.373Z,21.90
2018-09-14T16:45:53.132Z,21.90
2018-09-14T16:48:21.742Z,21.90
2018-09-14T16:50:50.337Z,21.80
2018-09-14T16:53:19.547Z,21.80
2018-09-14T16:55:48.281Z,21.80
2018-09-14T16:58:16.938Z,21.90
2018-09-14T17:00:45.575Z,21.70
2018-09-14T17:03:14.313Z,21.60
2018-09-14T17:05:43.021Z,21.50
2018-09-14T17:08:11.821Z,21.50
2018-09-14T17:10:40.571Z,21.50
2018-09-14T17:13:09.164Z,21.50
2018-09-14T17:15:37.767Z,21.60
2018-09-14T17:18:06.437Z,21.60
2018-09-14T17:20:35.206Z,21.60
2018-09-14T17:23:03.836Z,21.50
2018-09-14T17:25:32.552Z,21.50
2018-09-14T17:28:01.219Z,21.50
2018-09-14T17:30:29.895Z,21.50
2018-09-14T17:33:00.115Z,21.40
2018-09-14T17:35:29.034Z,21.40
2018-09-14T17:37:59.545Z,21.40
2018-09-14T17:40:28.276Z,21.40
2018-09-14T17:42:56.854Z,21.50
2018-09-14T17:45:25.673Z,21.50
2018-09-14T17:47:54.303Z,21.50
2018-09-14T17:50:22.993Z,21.50
2018-09-14T17:52:51.682Z,21.50
2018-09-14T17:55:20.887Z,21.50
2018-09-14T17:57:50.112Z,21.50
2018-09-14T18:00:19.396Z,21.30
2018-09-14T18:02:48.081Z,21.30
2018-09-14T18:05:16.757Z,21.30
2018-09-14T18:07:45.870Z,21.20
2018-09-14T18:10:14.728Z,21.20
2018-09-14T18:12:43.408Z,21.20
2018-09-14T18:15:12.140Z,20.80
2018-09-14T18:17:40.716Z,21.00
2018-09-14T18:20:09.327Z,21.00
2018-09-14T18:22:38.024Z,20.90
2018-09-14T18:25:06.691Z,20.80
2018-09-14T18:27:36.435Z,20.70
2018-09-14T18:30:05.525Z,20.70
2018-09-14T18:32:34.192Z,20.40
2018-09-14T18:35:02.915Z,20.60
2018-09-14T18:37:31.615Z,20.70
2018-09-14T18:40:00.362Z,20.50
2018-09-14T18:42:29.056Z,20.20
2018-09-14T18:44:57.702Z,20.40
2018-09-14T18:47:26.559Z,20.40
2018-09-14T18:49:55.201Z,20.30
2018-09-14T18:52:24.053Z,20.30
2018-09-14T18:54:53.032Z,20.20
2018-09-14T18:57:21.629Z,20.10
2018-09-14T18:59:50.177Z,20.20
2018-09-14T19:02:18.782Z,19.90
2018-09-14T19:04:47.428Z,20.00
2018-09-14T19:07:16.773Z,20.20
2018-09-14T19:09:45.357Z,19.70
2018-09-14T19:12:14.037Z,19.70
2018-09-14T19:14:42.870Z,19.70
2018-09-14T19:17:11.547Z,19.60
2018-09-14T19:19:40.114Z,19.80
2018-09-14T19:22:08.883Z,19.70
2018-09-14T19:24:37.510Z,19.60
2018-09-14T19:27:06.089Z,19.50
2018-09-14T19:29:34.733Z,19.40
2018-09-14T19:32:03.472Z,19.30
2018-09-14T19:34:32.210Z,19.50
2018-09-14T19:37:00.782Z,19.30
2018-09-14T19:39:29.439Z,19.20
2018-09-14T19:41:58.053Z,19.40
2018-09-14T19:44:26.969Z,19.20
2018-09-14T19:46:55.609Z,19.20
2018-09-14T19:49:24.259Z,19.20
2018-09-14T19:51:52.945Z,19.40
2018-09-14T19:54:21.610Z,19.40
2018-09-14T19:56:50.392Z,19.40
2018-09-14T19:59:19.139Z,19.10
2018-09-14T20:01:47.907Z,19.20
2018-09-14T20:04:16.640Z,19.20
2018-09-14T20:06:45.256Z,19.30
2018-09-14T20:09:15.119Z,18.90
2018-09-14T20:11:44.482Z,19.10
2018-09-14T20:14:13.377Z,19.00
2018-09-14T20:16:41.962Z,18.80
2018-09-14T20:19:10.908Z,19.00
2018-09-14T20:21:40.076Z,19.10
2018-09-14T20:24:08.776Z,19.00
2018-09-14T20:26:37.500Z,18.70
2018-09-14T20:29:06.112Z,19.10
2018-09-14T20:31:35.530Z,18.90
2018-09-14T20:34:04.186Z,18.70
2018-09-14T20:36:32.977Z,19.10
2018-09-14T20:39:02.445Z,19.00
2018-09-14T20:41:31.020Z,18.90
2018-09-14T20:43:59.903Z,19.10
2018-09-14T20:46:28.581Z,19.00
2018-09-14T20:48:57.193Z,19.00
2018-09-14T20:51:25.883Z,18.50
2018-09-14T20:53:54.807Z,19.00
2018-09-14T20:56:23.662Z,18.50
2018-09-14T20:58:52.254Z,18.90
2018-09-14T21:01:22.164Z,18.80
2018-09-14T21:03:50.803Z,18.80
2018-09-14T21:06:19.617Z,19.00
2018-09-14T21:08:49.164Z,18.80
2018-09-14T21:11:17.915Z,18.70
2018-09-14T21:13:46.595Z,18.80
2018-09-14T21:16:15.189Z,18.60
2018-09-14T21:18:43.857Z,18.70
2018-09-14T21:21:14.488Z,18.90
2018-09-14T21:23:44.509Z,18.90
2018-09-14T21:26:13.042Z,18.80
2018-09-14T21:28:41.703Z,18.80
2018-09-14T21:31:10.397Z,18.80
2018-09-14T21:33:38.966Z,18.80
2018-09-14T21:36:07.725Z,18.80
2018-09-14T21:38:36.392Z,19.00
2018-09-14T21:41:05.166Z,18.60
2018-09-14T21:43:34.032Z,18.70
2018-09-14T21:46:02.541Z,18.70
2018-09-14T21:48:31.175Z,18.60
2018-09-14T21:50:59.885Z,18.60
2018-09-14T21:53:28.458Z,18.70
2018-09-14T21:55:57.140Z,18.80
2018-09-14T21:58:25.852Z,18.70
2018-09-14T22:00:59.733Z,18.90
2018-09-14T22:03:28.283Z,18.70
2018-09-14T22:05:56.863Z,18.70
2018-09-14T22:08:25.699Z,18.90
2018-09-14T22:10:54.574Z,18.60
2018-09-14T22:13:23.575Z,18.80
2018-09-14T22:15:52.532Z,18.80
2018-09-14T22:18:21.094Z,18.70
2018-09-14T22:20:49.752Z,18.60
2018-09-14T22:23:18.420Z,18.80
2018-09-14T22:25:47.180Z,18.70
2018-09-14T22:28:16.108Z,18.80
2018-09-14T22:30:44.712Z,18.70
2018-09-14T22:33:13.466Z,18.60
2018-09-14T22:35:42.045Z,18.80
2018-09-14T22:38:10.695Z,18.80
2018-09-14T22:40:39.860Z,18.40
2018-09-14T22:43:08.595Z,18.70
2018-09-14T22:45:37.307Z,18.60
2018-09-14T22:48:05.932Z,18.80
2018-09-14T22:50:34.478Z,18.90
2018-09-14T22:53:03.068Z,18.80
2018-09-14T22:55:31.794Z,19.10
2018-09-14T22:58:00.643Z,18.90
2018-09-14T23:00:34.951Z,18.90
2018-09-14T23:03:03.587Z,19.00
2018-09-14T23:05:32.413Z,19.00
2018-09-14T23:08:00.975Z,18.80
2018-09-14T23:10:30.054Z,18.90
2018-09-14T23:12:59.429Z,19.00
2018-09-14T23:15:28.048Z,18.80
2018-09-14T23:17:56.748Z,18.60
2018-09-14T23:20:26.293Z,18.80
2018-09-14T23:22:55.234Z,18.80
2018-09-14T23:25:23.958Z,18.60
2018-09-14T23:27:52.603Z,18.60
2018-09-14T23:30:21.182Z,18.40
2018-09-14T23:32:49.702Z,18.40
2018-09-14T23:35:18.304Z,18.40
2018-09-14T23:37:47.607Z,18.20
2018-09-14T23:40:16.300Z,18.20
2018-09-14T23:42:44.839Z,18.30
2018-09-14T23:45:13.446Z,18.10
2018-09-14T23:47:42.660Z,17.90
2018-09-14T23:50:11.408Z,18.00
2018-09-14T23:52:40.007Z,18.20
2018-09-14T23:55:08.586Z,18.20
2018-09-14T23:57:37.223Z,18.00
